Dededo, Guam
Current Conditions -  °F | °C
As of 4:54 PM on Friday 19 Dec 2014 (Local Time) from PGUM Reporting Station
Light Rain Light Rain  
Wind Chill: 78°   Ceiling: 3500
Heat Index: 81°   Visibility: 5mi
Dew Point: 74°   Wind: 24mph
Humidity: 87%   Direction: 60°ENE
Pressure: 29.92"   Gusts: 36mph
Location:  13.51°N, 144.84°E
Report Text: PGUM 190654Z 06021G31KT 5SM -RA BR FEW021 SCT030 BKN035 26/23 A2992 RMK AO2 PK WND 07031/0648 RAE02B49 SLP126 P0000 T02560233
Loading
Personal Weather Stations






























Interactive Weather Map New forecast layout! Learn more

10-Day Weather Forecast

Advertisements
Track Severe Weather on mobile